Impacts METAR Board
IDs:

KIAD - Washington/Dulles In, VA, US

Updated at: 1000 UTC 18 Oct 2018
Potential Impact None Slight Moderate High
Time 17/22Z 17/23Z 18/00Z 18/01Z 18/02Z 18/03Z 18/04Z 18/05Z 18/06Z 18/07Z 18/08Z 18/09Z 18/10Z
Temp63 58 56 54 55 54 53 52 52 50 49 48 48
Dewpt36 37 37 37 38 37 35 36 35 33 34 33 32
Altim30.06 30.09 30.12 30.14 30.17 30.20 30.22 30.26 30.28 30.30 30.33 30.34 30.36
VIS10 10 10 10 10 10 10 10 10 10 10 10 10
CIG-- -- -- -- 70 -- -- 65 60 -- 60 60 60
CoverCLRFEWFEWSCTBKNSCTSCTBKNBKNSCTBKNBKNBKN
FltCatVFRVFRVFRVFRVFRVFRVFRVFRVFRVFRVFRVFRVFR
WX--------------------------
WDir30030030000300280340340320330340360
WSpd13 8 8 0 0 6 6 3 10 12 8 6 6
WGst21 -- -- -- -- -- -- -- 18 -- -- -- --
Raw hourly METARs
KIAD 172152Z 30013G21KT 10SM CLR 17/02 A3006 RMK AO2 SLP178 T01720022
KIAD 172252Z 30008KT 10SM FEW060 14/03 A3009 RMK AO2 SLP190 T01440028
KIAD 172352Z 30008KT 10SM FEW060 13/03 A3012 RMK AO2 SLP199 T01330028 10200 20133 53029
KIAD 180052Z 00000KT 10SM SCT070 12/03 A3014 RMK AO2 SLP207 T01220028
KIAD 180152Z 00000KT 10SM BKN070 13/03 A3017 RMK AO2 SLP216 T01280033
KIAD 180252Z 30006KT 10SM SCT075 12/03 A3020 RMK AO2 SLP226 T01220028 53027
KIAD 180352Z 28006KT 10SM SCT075 12/02 A3022 RMK AO2 SLP234 T01170017
KIAD 180452Z 34003KT 10SM BKN065 11/02 A3026 RMK AO2 SLP246 T01110022 402000083
KIAD 180552Z 34010G18KT 10SM BKN060 11/02 A3028 RMK AO2 SLP254 T01110017 10133 20100 51027
KIAD 180652Z 32012KT 10SM SCT065 10/01 A3030 RMK AO2 SLP261 T01000006
KIAD 180752Z 33008KT 10SM BKN060 09/01 A3033 RMK AO2 SLP268 T00940011
KIAD 180852Z 34006KT 10SM BKN060 09/01 A3034 RMK AO2 SLP272 T00890006 51018
KIAD 180952Z 36006KT 10SM BKN060 09/00 A3036 RMK AO2 SLP280 T00890000



Page loaded:  10:22 UTC  |   03:22 AM Pacific  |   04:22 AM Mountain  |   05:22 AM Central  |   06:22 AM Eastern

 

ADVISORIES

FORECASTS

FORECASTS

OBSERVATIONS

USER TOOLS

ABOUT US